createdAt,value
2019-03-28T00:01:51.204Z,15.30
2019-03-28T00:04:21.236Z,19.50
2019-03-28T00:06:51.345Z,14.77
2019-03-28T00:09:21.368Z,16.97
2019-03-28T00:11:51.688Z,21.43
2019-03-28T00:14:21.640Z,24.07
2019-03-28T00:16:51.761Z,14.70
2019-03-28T00:19:21.731Z,14.80
2019-03-28T00:21:51.892Z,16.20
2019-03-28T00:24:32.343Z,13.43
2019-03-28T00:27:02.397Z,16.20
2019-03-28T00:29:32.362Z,15.23
2019-03-28T00:32:02.339Z,11.40
2019-03-28T00:34:32.399Z,14.37
2019-03-28T00:37:02.249Z,17.00
2019-03-28T00:39:32.267Z,23.00
2019-03-28T00:42:02.244Z,15.27
2019-03-28T00:44:32.110Z,26.13
2019-03-28T00:47:02.191Z,17.03
2019-03-28T00:49:32.179Z,16.90
2019-03-28T00:52:02.703Z,14.87
2019-03-28T00:54:32.727Z,17.60
2019-03-28T00:57:02.778Z,17.17
2019-03-28T00:59:32.980Z,13.97
2019-03-28T01:02:03.171Z,15.23
2019-03-28T01:04:33.125Z,13.20
2019-03-28T01:07:03.547Z,16.60
2019-03-28T01:09:33.575Z,15.53
2019-03-28T01:12:04.270Z,14.57
2019-03-28T01:14:34.609Z,14.27
2019-03-28T01:17:06.136Z,21.77
2019-03-28T01:19:38.247Z,16.20
2019-03-28T01:22:08.351Z,18.07
2019-03-28T01:24:39.597Z,15.97
2019-03-28T01:27:12.757Z,16.80
2019-03-28T01:29:42.799Z,21.90
2019-03-28T01:32:12.883Z,17.73
2019-03-28T01:34:56.120Z,17.93
2019-03-28T01:37:26.074Z,21.30
2019-03-28T01:39:56.210Z,16.47
2019-03-28T01:42:26.412Z,17.30
2019-03-28T01:44:56.596Z,19.50
2019-03-28T01:47:26.625Z,23.77
2019-03-28T01:49:56.718Z,16.60
2019-03-28T01:52:26.796Z,23.37
2019-03-28T01:54:56.858Z,28.67
2019-03-28T01:57:45.674Z,24.23
2019-03-28T02:00:15.792Z,24.50
2019-03-28T02:02:45.776Z,22.73
2019-03-28T02:05:17.068Z,24.30
2019-03-28T02:07:50.240Z,36.37
2019-03-28T02:10:20.286Z,32.20
2019-03-28T02:12:50.278Z,29.40
2019-03-28T02:15:20.205Z,32.80
2019-03-28T02:17:51.701Z,32.07
2019-03-28T02:20:21.627Z,29.90
2019-03-28T02:22:51.669Z,26.83
2019-03-28T02:25:21.623Z,31.53
2019-03-28T02:27:52.601Z,25.80
2019-03-28T02:30:31.619Z,24.07
2019-03-28T02:33:01.711Z,30.70
2019-03-28T02:35:31.640Z,31.57
2019-03-28T02:38:01.638Z,31.30
2019-03-28T02:40:31.566Z,28.83
2019-03-28T02:43:01.570Z,25.33
2019-03-28T02:45:31.493Z,24.77
2019-03-28T02:48:01.819Z,30.90
2019-03-28T02:50:32.051Z,22.43
2019-03-28T02:53:02.044Z,24.43
2019-03-28T02:55:32.169Z,28.50
2019-03-28T02:58:02.403Z,25.40
2019-03-28T03:00:32.607Z,25.90
2019-03-28T03:03:02.897Z,16.73
2019-03-28T03:05:32.880Z,22.80
2019-03-28T03:08:02.855Z,26.10
2019-03-28T03:10:32.792Z,23.37
2019-03-28T03:13:02.760Z,25.10
2019-03-28T03:15:40.713Z,23.37
2019-03-28T03:18:10.682Z,23.03
2019-03-28T03:20:40.590Z,22.33
2019-03-28T03:23:10.624Z,18.57
2019-03-28T03:25:40.549Z,21.57
2019-03-28T03:28:10.634Z,20.87
2019-03-28T03:30:40.524Z,23.67
2019-03-28T03:33:10.572Z,21.70
2019-03-28T03:35:40.515Z,23.27
2019-03-28T03:38:10.538Z,25.20
2019-03-28T03:40:40.664Z,22.00
2019-03-28T03:43:10.641Z,27.00
2019-03-28T03:45:40.666Z,20.13
2019-03-28T03:48:11.974Z,22.10
2019-03-28T03:51:02.644Z,21.40
2019-03-28T03:53:51.509Z,24.27
2019-03-28T03:56:21.490Z,24.27
2019-03-28T03:58:51.531Z,21.20
2019-03-28T04:01:21.537Z,22.87
2019-03-28T04:03:51.466Z,21.40
2019-03-28T04:06:23.492Z,19.47
2019-03-28T04:08:56.731Z,20.00
2019-03-28T04:11:26.711Z,21.37
2019-03-28T04:13:56.738Z,24.27
2019-03-28T04:16:26.712Z,22.50
2019-03-28T04:18:59.758Z,19.37
2019-03-28T04:21:29.860Z,23.80
2019-03-28T04:24:00.973Z,19.37
2019-03-28T04:26:31.698Z,25.20
2019-03-28T04:29:02.926Z,21.80
2019-03-28T04:31:36.092Z,24.00
2019-03-28T04:34:07.745Z,20.37
2019-03-28T04:36:41.878Z,22.70
2019-03-28T04:39:11.782Z,18.53
2019-03-28T04:41:41.757Z,22.57
2019-03-28T04:44:11.692Z,17.80
2019-03-28T04:46:41.818Z,23.13
2019-03-28T04:49:12.151Z,21.03
2019-03-28T04:51:42.129Z,20.90
2019-03-28T04:54:12.039Z,19.23
2019-03-28T04:56:41.981Z,22.13
2019-03-28T04:59:11.973Z,18.90
2019-03-28T05:01:41.823Z,21.10
2019-03-28T05:04:11.798Z,21.57
2019-03-28T05:06:50.332Z,20.00
2019-03-28T05:09:20.296Z,20.93
2019-03-28T05:11:50.230Z,23.57
2019-03-28T05:14:20.198Z,22.20
2019-03-28T05:16:50.236Z,20.10
2019-03-28T05:19:20.294Z,21.33
2019-03-28T05:21:50.218Z,23.47
2019-03-28T05:24:20.160Z,19.00
2019-03-28T05:26:50.064Z,19.00
2019-03-28T05:29:20.140Z,19.17
2019-03-28T05:31:50.130Z,23.47
2019-03-28T05:34:20.046Z,17.43
2019-03-28T05:36:52.132Z,16.67
2019-03-28T05:39:21.654Z,18.07
2019-03-28T05:42:03.601Z,18.30
2019-03-28T05:44:33.715Z,19.23
2019-03-28T05:47:03.758Z,17.10
2019-03-28T05:49:33.847Z,12.80
2019-03-28T05:52:03.976Z,20.70
2019-03-28T05:54:33.948Z,14.23
2019-03-28T05:57:06.028Z,22.00
2019-03-28T05:59:36.039Z,17.37
2019-03-28T06:02:07.496Z,18.40
2019-03-28T06:04:41.080Z,14.60
2019-03-28T06:07:11.025Z,16.83
2019-03-28T06:09:41.205Z,17.80
2019-03-28T06:12:11.089Z,12.80
2019-03-28T06:14:41.095Z,12.10
2019-03-28T06:17:11.045Z,13.47
2019-03-28T06:19:41.053Z,13.60
2019-03-28T06:22:11.143Z,17.13
2019-03-28T06:24:48.003Z,17.80
2019-03-28T06:27:17.897Z,17.43
2019-03-28T06:29:47.880Z,13.47
2019-03-28T06:32:17.821Z,15.10
2019-03-28T06:34:54.647Z,15.87
2019-03-28T06:37:24.561Z,15.93
2019-03-28T06:39:54.739Z,10.70
2019-03-28T06:42:24.786Z,14.30
2019-03-28T06:44:54.730Z,13.70
2019-03-28T06:47:24.718Z,15.90
2019-03-28T06:49:54.749Z,15.03
2019-03-28T06:52:24.965Z,15.33
2019-03-28T06:55:01.868Z,14.70
2019-03-28T06:57:32.223Z,16.70
2019-03-28T07:00:02.292Z,15.80
2019-03-28T07:02:32.263Z,14.23
2019-03-28T07:05:02.363Z,16.47
2019-03-28T07:07:32.418Z,17.60
2019-03-28T07:10:03.581Z,17.97
2019-03-28T07:12:34.624Z,17.73
2019-03-28T07:15:08.189Z,14.80
2019-03-28T07:17:38.424Z,14.60
2019-03-28T07:20:09.266Z,18.27
2019-03-28T07:22:39.352Z,16.90
2019-03-28T07:25:09.821Z,13.43
2019-03-28T07:27:39.813Z,13.67
2019-03-28T07:30:11.335Z,14.97
2019-03-28T07:32:43.411Z,14.13
2019-03-28T07:35:13.041Z,14.23
2019-03-28T07:37:43.022Z,13.40
2019-03-28T07:40:13.594Z,16.43
2019-03-28T07:42:43.473Z,14.63
2019-03-28T07:45:19.352Z,14.53
2019-03-28T07:47:49.286Z,12.43
2019-03-28T07:50:23.046Z,13.00
2019-03-28T07:52:53.645Z,14.90
2019-03-28T07:55:25.752Z,13.90
2019-03-28T07:57:55.742Z,15.77
2019-03-28T08:00:25.797Z,13.80
2019-03-28T08:02:58.365Z,12.70
2019-03-28T08:05:27.336Z,13.73
2019-03-28T08:07:57.352Z,11.53
2019-03-28T08:10:27.240Z,13.67
2019-03-28T08:12:57.409Z,12.53
2019-03-28T08:15:29.633Z,13.83
2019-03-28T08:17:59.691Z,12.90
2019-03-28T08:20:30.751Z,13.87
2019-03-28T08:23:00.714Z,13.60
2019-03-28T08:25:32.641Z,16.80
2019-03-28T08:28:03.653Z,12.70
2019-03-28T08:30:38.230Z,12.70
2019-03-28T08:33:12.077Z,13.17
2019-03-28T08:35:44.051Z,14.37
2019-03-28T08:38:16.307Z,14.23
2019-03-28T08:40:53.415Z,12.63
2019-03-28T08:43:23.371Z,13.37
2019-03-28T08:45:55.365Z,11.83
2019-03-28T08:48:31.163Z,12.90
2019-03-28T08:51:02.246Z,15.37
2019-03-28T08:53:32.231Z,14.30
2019-03-28T08:56:03.383Z,11.10
2019-03-28T08:58:37.862Z,11.37
2019-03-28T09:01:08.224Z,9.77
2019-03-28T09:03:49.759Z,9.07
2019-03-28T09:06:19.306Z,15.20
2019-03-28T09:08:50.263Z,11.70
2019-03-28T09:11:21.591Z,13.50
2019-03-28T09:13:53.803Z,11.77
2019-03-28T09:16:25.800Z,11.37
2019-03-28T09:18:56.749Z,13.60
2019-03-28T09:21:26.704Z,12.10
2019-03-28T09:24:01.748Z,19.50
2019-03-28T09:26:33.806Z,13.33
2019-03-28T09:29:03.767Z,13.80
2019-03-28T09:31:33.706Z,12.57
2019-03-28T09:34:04.911Z,10.57
2019-03-28T09:36:36.708Z,9.53
2019-03-28T09:39:11.843Z,10.60
2019-03-28T09:41:42.926Z,12.20
2019-03-28T09:44:13.804Z,10.87
2019-03-28T09:46:49.796Z,12.43
2019-03-28T09:49:19.788Z,14.60
2019-03-28T09:52:07.072Z,10.23
2019-03-28T09:54:38.152Z,11.60
2019-03-28T09:57:08.190Z,13.70
2019-03-28T09:59:38.238Z,13.23
2019-03-28T10:02:08.184Z,13.17
2019-03-28T10:04:38.281Z,14.87
2019-03-28T10:07:25.680Z,11.77
2019-03-28T10:09:55.975Z,14.77
2019-03-28T10:12:27.085Z,12.33
2019-03-28T10:15:04.107Z,10.90
2019-03-28T10:17:34.008Z,10.00
2019-03-28T10:20:06.437Z,9.27
2019-03-28T10:22:37.457Z,9.50
2019-03-28T10:25:07.699Z,8.27
2019-03-28T10:27:37.774Z,12.70
2019-03-28T10:30:08.881Z,10.00
2019-03-28T10:32:44.677Z,10.07
2019-03-28T10:35:26.878Z,10.20
2019-03-28T10:37:56.893Z,10.50
2019-03-28T10:40:26.867Z,8.50
2019-03-28T10:42:57.983Z,12.27
2019-03-28T10:45:28.084Z,10.80
2019-03-28T10:47:58.226Z,10.80
2019-03-28T10:50:40.223Z,9.20
2019-03-28T10:53:03.861Z,12.70
2019-03-28T10:55:35.909Z,10.30
2019-03-28T10:58:17.753Z,11.10
2019-03-28T11:00:37.822Z,8.53
2019-03-28T11:03:14.669Z,8.90
2019-03-28T11:05:46.698Z,13.20
2019-03-28T11:08:16.781Z,20.97
2019-03-28T11:10:52.815Z,30.03
2019-03-28T11:13:22.764Z,25.60
2019-03-28T11:15:52.834Z,15.43
2019-03-28T11:18:28.904Z,11.73
2019-03-28T11:20:58.897Z,11.47
2019-03-28T11:23:42.018Z,12.07
2019-03-28T11:26:11.905Z,11.63
2019-03-28T11:28:42.271Z,12.97
2019-03-28T11:31:12.180Z,12.67
2019-03-28T11:33:42.152Z,12.40
2019-03-28T11:36:13.942Z,13.87
2019-03-28T11:38:45.070Z,14.63
2019-03-28T11:41:15.021Z,11.50
2019-03-28T11:43:47.200Z,17.50
2019-03-28T11:46:21.202Z,12.40
2019-03-28T11:48:51.407Z,11.87
2019-03-28T11:51:22.561Z,11.03
2019-03-28T11:53:52.801Z,9.53
2019-03-28T11:56:22.845Z,13.20
2019-03-28T11:58:53.883Z,10.63
2019-03-28T12:01:23.844Z,9.63
2019-03-28T12:03:53.823Z,13.33
2019-03-28T12:06:26.078Z,10.23
2019-03-28T12:08:56.106Z,10.03
2019-03-28T12:11:26.123Z,18.13
2019-03-28T12:13:56.158Z,13.10
2019-03-28T12:16:28.168Z,12.73
2019-03-28T12:18:58.203Z,15.97
2019-03-28T12:21:29.245Z,12.20
2019-03-28T12:23:59.223Z,12.57
2019-03-28T12:26:29.233Z,12.60
2019-03-28T12:28:59.239Z,11.00
2019-03-28T12:31:40.247Z,16.17
2019-03-28T12:34:11.216Z,12.40
2019-03-28T12:36:41.102Z,12.87
2019-03-28T12:39:11.043Z,14.20
2019-03-28T12:41:41.048Z,14.13
2019-03-28T12:44:11.108Z,13.70
2019-03-28T12:46:43.152Z,19.23
2019-03-28T12:49:17.669Z,14.67
2019-03-28T12:51:47.622Z,12.03
2019-03-28T12:54:17.652Z,11.30
2019-03-28T12:58:04.279Z,14.30
2019-03-28T13:04:11.442Z,14.03
2019-03-28T13:06:41.492Z,15.93
2019-03-28T13:09:11.544Z,12.90
2019-03-28T13:18:42.885Z,11.80
2019-03-28T13:21:14.431Z,18.10
2019-03-28T13:24:16.616Z,11.53
2019-03-28T13:26:48.760Z,11.33
2019-03-28T13:29:19.053Z,12.10
2019-03-28T13:36:07.942Z,13.17
2019-03-28T13:38:37.963Z,10.50
2019-03-28T13:41:34.327Z,14.97
2019-03-28T13:44:23.994Z,13.10
2019-03-28T13:46:53.856Z,10.40
2019-03-28T13:49:23.744Z,12.07
2019-03-28T13:51:53.777Z,13.97
2019-03-28T13:54:23.842Z,12.03
2019-03-28T13:56:53.760Z,12.60
2019-03-28T13:59:23.689Z,14.97
2019-03-28T14:01:53.675Z,16.23
2019-03-28T14:04:23.558Z,16.03
2019-03-28T14:06:53.919Z,15.80
2019-03-28T14:09:23.894Z,15.13
2019-03-28T14:11:53.834Z,16.80
2019-03-28T14:14:24.199Z,13.50
2019-03-28T14:16:59.724Z,21.63
2019-03-28T14:19:35.907Z,12.77
2019-03-28T14:22:12.424Z,14.90
2019-03-28T14:24:50.542Z,18.63
2019-03-28T14:29:56.391Z,14.37
2019-03-28T14:32:26.694Z,15.40
2019-03-28T14:34:56.712Z,14.47
2019-03-28T14:37:26.535Z,16.10
2019-03-28T14:39:56.945Z,16.23
2019-03-28T14:42:27.065Z,13.40
2019-03-28T14:44:59.075Z,16.30
2019-03-28T14:47:28.946Z,16.30
2019-03-28T14:49:58.871Z,19.23
2019-03-28T14:52:28.825Z,14.37
2019-03-28T14:55:01.448Z,13.50
2019-03-28T14:57:32.087Z,18.20
2019-03-28T15:00:04.778Z,15.13
2019-03-28T15:02:39.974Z,18.13
2019-03-28T15:05:27.333Z,17.43
2019-03-28T15:07:59.843Z,15.80
2019-03-28T15:10:30.033Z,16.17
2019-03-28T15:12:59.987Z,17.50
2019-03-28T15:15:36.455Z,19.60
2019-03-28T15:18:07.009Z,18.03
2019-03-28T15:20:43.235Z,16.60
2019-03-28T15:23:13.711Z,17.23
2019-03-28T15:25:46.165Z,16.90
2019-03-28T15:28:23.010Z,14.27
2019-03-28T15:30:56.507Z,16.93
2019-03-28T15:33:38.687Z,12.20
2019-03-28T15:36:06.578Z,14.97
2019-03-28T15:38:37.063Z,20.07
2019-03-28T15:41:07.206Z,19.37
2019-03-28T15:43:38.462Z,13.23
2019-03-28T15:46:11.288Z,17.00
2019-03-28T15:48:42.276Z,13.43
2019-03-28T15:51:12.563Z,12.03
2019-03-28T15:53:43.286Z,10.97
2019-03-28T15:56:15.666Z,15.50
2019-03-28T15:58:48.682Z,13.57
2019-03-28T16:01:20.365Z,16.37
2019-03-28T16:03:53.155Z,13.57
2019-03-28T16:06:24.858Z,15.70
2019-03-28T16:09:07.460Z,14.93
2019-03-28T16:11:37.596Z,12.03
2019-03-28T16:14:07.638Z,16.30
2019-03-28T16:16:37.740Z,15.57
2019-03-28T16:19:08.078Z,16.30
2019-03-28T16:21:40.410Z,15.43
2019-03-28T16:24:10.714Z,15.47
2019-03-28T16:26:41.902Z,15.80
2019-03-28T16:29:11.908Z,14.50
2019-03-28T16:31:42.040Z,15.60
2019-03-28T16:34:12.115Z,10.20
2019-03-28T16:36:49.233Z,17.17
2019-03-28T16:39:19.339Z,13.63
2019-03-28T16:41:51.946Z,14.43
2019-03-28T16:44:22.089Z,15.37
2019-03-28T16:46:53.995Z,14.60
2019-03-28T16:49:24.389Z,11.50
2019-03-28T16:51:54.584Z,10.97
2019-03-28T16:54:24.966Z,13.53
2019-03-28T16:56:57.875Z,12.73
2019-03-28T17:03:25.953Z,10.07
2019-03-28T17:06:01.602Z,13.90
2019-03-28T17:08:34.040Z,15.50
2019-03-28T17:11:05.889Z,12.23
2019-03-28T17:13:35.945Z,11.30
2019-03-28T17:16:24.238Z,18.20
2019-03-28T17:18:54.459Z,13.60
2019-03-28T17:21:24.609Z,10.77
2019-03-28T17:23:58.027Z,11.80
2019-03-28T17:26:28.583Z,9.43
2019-03-28T17:28:58.463Z,12.83
2019-03-28T17:31:28.428Z,12.90
2019-03-28T17:33:59.052Z,12.47
2019-03-28T17:36:29.376Z,12.60
2019-03-28T17:38:59.392Z,10.20
2019-03-28T17:41:29.538Z,10.07
2019-03-28T17:44:00.061Z,13.43
2019-03-28T17:46:34.122Z,12.40
2019-03-28T17:49:04.430Z,12.60
2019-03-28T17:51:35.613Z,12.40
2019-03-28T17:54:12.802Z,12.87
2019-03-28T17:56:44.511Z,9.73
2019-03-28T17:59:14.613Z,11.20
2019-03-28T18:01:44.762Z,12.63
2019-03-28T18:04:22.607Z,14.30
2019-03-28T18:06:48.894Z,12.50
2019-03-28T18:09:28.893Z,11.73
2019-03-28T18:12:00.264Z,10.50
2019-03-28T18:14:30.618Z,14.23
2019-03-28T18:17:00.855Z,14.43
2019-03-28T18:19:33.819Z,12.40
2019-03-28T18:22:04.220Z,11.37
2019-03-28T18:24:36.101Z,13.60
2019-03-28T18:27:07.620Z,11.50
2019-03-28T18:29:38.245Z,12.73
2019-03-28T18:32:11.668Z,12.73
2019-03-28T18:34:42.102Z,12.77
2019-03-28T18:37:12.069Z,17.90
2019-03-28T18:39:44.902Z,13.80
2019-03-28T18:42:14.987Z,11.93
2019-03-28T18:44:44.959Z,18.97
2019-03-28T18:47:18.147Z,14.30
2019-03-28T18:49:48.241Z,12.03
2019-03-28T18:52:21.447Z,13.23
2019-03-28T18:54:57.627Z,11.20
2019-03-28T18:57:27.716Z,12.30
2019-03-28T18:59:57.887Z,12.60
2019-03-28T19:02:30.956Z,12.03
2019-03-28T19:05:03.209Z,11.70
2019-03-28T19:07:36.873Z,14.10
2019-03-28T19:10:07.942Z,16.97
2019-03-28T19:12:38.009Z,12.27
2019-03-28T19:15:08.991Z,17.83
2019-03-28T19:17:39.178Z,13.93
2019-03-28T19:20:10.624Z,17.13
2019-03-28T19:22:40.642Z,12.23
2019-03-28T19:25:11.079Z,14.90
2019-03-28T19:27:43.258Z,14.20
2019-03-28T19:30:13.719Z,20.47
2019-03-28T19:32:43.674Z,18.20
2019-03-28T19:35:13.591Z,19.37
2019-03-28T19:37:43.875Z,17.80
2019-03-28T19:40:15.216Z,16.23
2019-03-28T19:42:45.170Z,19.60
2019-03-28T19:45:18.830Z,17.30
2019-03-28T19:47:48.758Z,22.07
2019-03-28T19:50:29.575Z,18.63
2019-03-28T19:52:59.783Z,21.27
2019-03-28T19:55:43.060Z,17.20
2019-03-28T19:58:31.326Z,23.90
2019-03-28T20:01:06.129Z,17.40
2019-03-28T20:03:36.517Z,22.33
2019-03-28T20:06:06.426Z,20.30
2019-03-28T20:08:36.422Z,24.47
2019-03-28T20:11:06.591Z,25.13
2019-03-28T20:13:36.644Z,19.50
2019-03-28T20:16:06.812Z,24.57
2019-03-28T20:18:36.814Z,20.43
2019-03-28T20:21:12.896Z,21.67
2019-03-28T20:23:45.730Z,18.80
2019-03-28T20:26:19.864Z,18.60
2019-03-28T20:28:50.133Z,19.53
2019-03-28T20:31:20.056Z,18.83
2019-03-28T20:33:50.201Z,23.87
2019-03-28T20:36:36.824Z,24.07
2019-03-28T20:39:04.016Z,17.93
2019-03-28T20:41:25.316Z,18.63
2019-03-28T20:43:55.213Z,21.40
2019-03-28T20:46:25.247Z,21.90
2019-03-28T20:48:57.811Z,20.30
2019-03-28T20:51:37.815Z,24.20
2019-03-28T20:54:08.918Z,17.43
2019-03-28T20:56:39.751Z,17.50
2019-03-28T20:59:10.553Z,24.00
2019-03-28T21:01:42.574Z,18.70
2019-03-28T21:04:15.294Z,20.60
2019-03-28T21:06:47.040Z,20.00
2019-03-28T21:09:17.101Z,20.00
2019-03-28T21:11:48.997Z,24.00
2019-03-28T21:14:20.019Z,22.10
2019-03-28T21:16:50.223Z,20.23
2019-03-28T21:19:20.369Z,22.03
2019-03-28T21:21:50.400Z,20.57
2019-03-28T21:24:20.409Z,21.73
2019-03-28T21:26:50.464Z,24.47
2019-03-28T21:29:20.399Z,18.37
2019-03-28T21:31:51.990Z,17.67
2019-03-28T21:34:22.140Z,18.50
2019-03-28T21:36:52.136Z,19.00
2019-03-28T21:39:22.339Z,20.83
2019-03-28T21:41:52.514Z,21.03
2019-03-28T21:44:22.956Z,18.90
2019-03-28T21:46:53.159Z,22.57
2019-03-28T21:49:23.046Z,20.27
2019-03-28T21:51:54.503Z,21.40
2019-03-28T21:54:24.996Z,21.27
2019-03-28T21:56:55.407Z,22.70
2019-03-28T21:59:26.440Z,19.90
2019-03-28T22:01:56.477Z,21.77
2019-03-28T22:04:26.646Z,18.93
2019-03-28T22:06:56.948Z,21.20
2019-03-28T22:09:26.956Z,17.90
2019-03-28T22:12:00.450Z,17.20
2019-03-28T22:14:28.964Z,20.73
2019-03-28T22:16:59.006Z,23.47
2019-03-28T22:19:29.096Z,16.83
2019-03-28T22:21:58.923Z,16.73
2019-03-28T22:24:29.966Z,32.30
2019-03-28T22:26:59.979Z,21.23
2019-03-28T22:29:29.826Z,19.60
2019-03-28T22:32:00.999Z,21.53
2019-03-28T22:34:31.077Z,19.13
2019-03-28T22:37:03.430Z,22.23
2019-03-28T22:39:34.097Z,17.23
2019-03-28T22:42:03.989Z,25.83
2019-03-28T22:44:34.156Z,24.37
2019-03-28T22:47:04.462Z,26.00
2019-03-28T22:49:34.506Z,16.40
2019-03-28T22:52:24.795Z,19.30
2019-03-28T22:54:54.700Z,20.50
2019-03-28T22:57:24.545Z,21.70
2019-03-28T22:59:55.985Z,24.40
2019-03-28T23:02:26.038Z,22.90
2019-03-28T23:04:55.925Z,26.70
2019-03-28T23:07:25.944Z,24.83
2019-03-28T23:09:55.937Z,22.97
2019-03-28T23:12:25.963Z,25.70
2019-03-28T23:14:55.833Z,28.10
2019-03-28T23:17:25.800Z,24.60
2019-03-28T23:19:57.936Z,25.37
2019-03-28T23:22:27.957Z,30.83
2019-03-28T23:24:57.898Z,30.27
2019-03-28T23:27:27.861Z,37.30
2019-03-28T23:29:57.838Z,31.60
2019-03-28T23:32:28.880Z,30.67
2019-03-28T23:34:58.779Z,36.93
2019-03-28T23:37:28.750Z,27.63
2019-03-28T23:39:58.734Z,29.03
2019-03-28T23:42:28.834Z,29.70
2019-03-28T23:44:59.038Z,30.83
2019-03-28T23:47:29.989Z,34.13
2019-03-28T23:50:00.393Z,28.80
2019-03-28T23:52:30.259Z,32.03
2019-03-28T23:55:00.261Z,34.80
2019-03-28T23:57:30.178Z,30.37
